sensor_id;sensor_type;location;lat;lon;timestamp;P1;durP1;ratioP1;P2;durP2;ratioP2
80127;SDS011;69440;52.118;5.408;2023-07-31T00:02:08;9.00;;;1.48;;
80127;SDS011;69440;52.118;5.408;2023-07-31T00:04:34;9.70;;;1.45;;
80127;SDS011;69440;52.118;5.408;2023-07-31T00:07:01;3.47;;;1.48;;
80127;SDS011;69440;52.118;5.408;2023-07-31T00:09:30;3.95;;;1.30;;
80127;SDS011;69440;52.118;5.408;2023-07-31T00:11:56;5.05;;;1.30;;
80127;SDS011;69440;52.118;5.408;2023-07-31T00:14:23;2.15;;;1.00;;
80127;SDS011;69440;52.118;5.408;2023-07-31T00:16:50;6.65;;;1.08;;
80127;SDS011;69440;52.118;5.408;2023-07-31T00:19:17;3.88;;;1.30;;
80127;SDS011;69440;52.118;5.408;2023-07-31T00:21:44;3.53;;;1.23;;
80127;SDS011;69440;52.118;5.408;2023-07-31T00:24:11;3.55;;;2.05;;
80127;SDS011;69440;52.118;5.408;2023-07-31T00:26:37;3.97;;;1.52;;
80127;SDS011;69440;52.118;5.408;2023-07-31T00:29:04;7.40;;;2.00;;
80127;SDS011;69440;52.118;5.408;2023-07-31T00:31:30;4.65;;;1.95;;
80127;SDS011;69440;52.118;5.408;2023-07-31T00:33:57;8.02;;;2.30;;
80127;SDS011;69440;52.118;5.408;2023-07-31T00:36:24;13.63;;;2.33;;
80127;SDS011;69440;52.118;5.408;2023-07-31T00:38:50;9.63;;;2.47;;
80127;SDS011;69440;52.118;5.408;2023-07-31T00:41:17;15.10;;;3.50;;
80127;SDS011;69440;52.118;5.408;2023-07-31T00:43:43;13.25;;;3.20;;
80127;SDS011;69440;52.118;5.408;2023-07-31T00:46:10;17.35;;;3.70;;
80127;SDS011;69440;52.118;5.408;2023-07-31T00:48:36;17.60;;;4.05;;
80127;SDS011;69440;52.118;5.408;2023-07-31T00:51:04;22.52;;;4.55;;
80127;SDS011;69440;52.118;5.408;2023-07-31T00:53:30;22.25;;;4.13;;
80127;SDS011;69440;52.118;5.408;2023-07-31T00:55:57;29.58;;;5.10;;
80127;SDS011;69440;52.118;5.408;2023-07-31T00:58:24;31.15;;;5.38;;
80127;SDS011;69440;52.118;5.408;2023-07-31T01:00:50;23.40;;;4.43;;
80127;SDS011;69440;52.118;5.408;2023-07-31T01:03:17;21.70;;;4.38;;
80127;SDS011;69440;52.118;5.408;2023-07-31T01:08:48;28.75;;;5.43;;
80127;SDS011;69440;52.118;5.408;2023-07-31T01:11:28;33.25;;;4.95;;
80127;SDS011;69440;52.118;5.408;2023-07-31T01:14:09;28.85;;;5.90;;
80127;SDS011;69440;52.118;5.408;2023-07-31T01:16:35;25.50;;;4.50;;
80127;SDS011;69440;52.118;5.408;2023-07-31T01:19:02;21.38;;;4.68;;
80127;SDS011;69440;52.118;5.408;2023-07-31T01:26:57;26.83;;;4.65;;
80127;SDS011;69440;52.118;5.408;2023-07-31T01:32:23;35.53;;;5.60;;
80127;SDS011;69440;52.118;5.408;2023-07-31T01:34:51;23.40;;;4.80;;
80127;SDS011;69440;52.118;5.408;2023-07-31T01:37:19;24.85;;;4.78;;
80127;SDS011;69440;52.118;5.408;2023-07-31T01:39:46;27.65;;;4.75;;
80127;SDS011;69440;52.118;5.408;2023-07-31T01:42:12;23.08;;;4.60;;
80127;SDS011;69440;52.118;5.408;2023-07-31T01:44:40;15.43;;;3.95;;
80127;SDS011;69440;52.118;5.408;2023-07-31T01:47:06;24.40;;;4.50;;
80127;SDS011;69440;52.118;5.408;2023-07-31T01:49:33;19.65;;;4.38;;
80127;SDS011;69440;52.118;5.408;2023-07-31T01:51:59;26.10;;;4.80;;
80127;SDS011;69440;52.118;5.408;2023-07-31T01:54:26;21.83;;;4.85;;
80127;SDS011;69440;52.118;5.408;2023-07-31T01:56:52;21.00;;;5.47;;
80127;SDS011;69440;52.118;5.408;2023-07-31T01:59:19;20.80;;;4.80;;
80127;SDS011;69440;52.118;5.408;2023-07-31T02:01:45;30.45;;;5.68;;
80127;SDS011;69440;52.118;5.408;2023-07-31T02:04:12;19.13;;;4.70;;
80127;SDS011;69440;52.118;5.408;2023-07-31T02:06:38;32.22;;;5.43;;
80127;SDS011;69440;52.118;5.408;2023-07-31T02:09:06;20.35;;;4.93;;
80127;SDS011;69440;52.118;5.408;2023-07-31T02:11:32;17.17;;;4.28;;
80127;SDS011;69440;52.118;5.408;2023-07-31T02:13:59;19.20;;;3.90;;
80127;SDS011;69440;52.118;5.408;2023-07-31T02:16:25;20.17;;;4.10;;
80127;SDS011;69440;52.118;5.408;2023-07-31T02:18:52;17.08;;;4.32;;
80127;SDS011;69440;52.118;5.408;2023-07-31T02:21:18;18.08;;;4.22;;
80127;SDS011;69440;52.118;5.408;2023-07-31T02:23:45;18.58;;;4.53;;
80127;SDS011;69440;52.118;5.408;2023-07-31T02:26:11;26.98;;;4.82;;
80127;SDS011;69440;52.118;5.408;2023-07-31T02:28:38;25.05;;;4.20;;
80127;SDS011;69440;52.118;5.408;2023-07-31T02:31:04;22.92;;;4.60;;
80127;SDS011;69440;52.118;5.408;2023-07-31T02:33:31;19.50;;;4.07;;
80127;SDS011;69440;52.118;5.408;2023-07-31T02:35:57;22.60;;;4.65;;
80127;SDS011;69440;52.118;5.408;2023-07-31T02:38:24;18.58;;;4.00;;
80127;SDS011;69440;52.118;5.408;2023-07-31T02:40:50;14.70;;;3.70;;
80127;SDS011;69440;52.118;5.408;2023-07-31T02:43:17;15.80;;;3.78;;
80127;SDS011;69440;52.118;5.408;2023-07-31T02:45:43;22.10;;;4.25;;
80127;SDS011;69440;52.118;5.408;2023-07-31T02:48:10;16.73;;;4.40;;
80127;SDS011;69440;52.118;5.408;2023-07-31T02:50:36;19.63;;;4.22;;
80127;SDS011;69440;52.118;5.408;2023-07-31T02:53:03;23.10;;;3.70;;
80127;SDS011;69440;52.118;5.408;2023-07-31T02:55:29;27.90;;;4.97;;
80127;SDS011;69440;52.118;5.408;2023-07-31T02:57:56;12.90;;;3.38;;
80127;SDS011;69440;52.118;5.408;2023-07-31T03:00:22;19.40;;;3.90;;
80127;SDS011;69440;52.118;5.408;2023-07-31T03:02:49;26.02;;;4.47;;
80127;SDS011;69440;52.118;5.408;2023-07-31T03:05:15;17.27;;;4.53;;
80127;SDS011;69440;52.118;5.408;2023-07-31T03:07:42;20.48;;;4.88;;
80127;SDS011;69440;52.118;5.408;2023-07-31T03:10:08;20.50;;;5.22;;
80127;SDS011;69440;52.118;5.408;2023-07-31T03:12:35;20.23;;;5.10;;
80127;SDS011;69440;52.118;5.408;2023-07-31T03:15:01;21.15;;;4.72;;
80127;SDS011;69440;52.118;5.408;2023-07-31T03:17:28;20.35;;;5.00;;
80127;SDS011;69440;52.118;5.408;2023-07-31T03:19:54;22.13;;;4.78;;
80127;SDS011;69440;52.118;5.408;2023-07-31T03:22:21;18.63;;;4.63;;
80127;SDS011;69440;52.118;5.408;2023-07-31T03:24:47;14.73;;;4.65;;
80127;SDS011;69440;52.118;5.408;2023-07-31T03:27:14;21.08;;;4.95;;
80127;SDS011;69440;52.118;5.408;2023-07-31T03:29:40;24.75;;;5.45;;
80127;SDS011;69440;52.118;5.408;2023-07-31T03:32:07;21.25;;;5.18;;
80127;SDS011;69440;52.118;5.408;2023-07-31T03:34:33;19.00;;;5.18;;
80127;SDS011;69440;52.118;5.408;2023-07-31T03:37:00;23.98;;;5.18;;
80127;SDS011;69440;52.118;5.408;2023-07-31T03:39:26;27.67;;;5.40;;
80127;SDS011;69440;52.118;5.408;2023-07-31T03:41:53;22.13;;;5.28;;
80127;SDS011;69440;52.118;5.408;2023-07-31T03:44:19;20.08;;;5.18;;
80127;SDS011;69440;52.118;5.408;2023-07-31T03:46:46;19.73;;;5.38;;
80127;SDS011;69440;52.118;5.408;2023-07-31T03:49:12;21.30;;;5.35;;
80127;SDS011;69440;52.118;5.408;2023-07-31T03:51:39;17.88;;;5.90;;
80127;SDS011;69440;52.118;5.408;2023-07-31T03:54:05;23.60;;;5.22;;
80127;SDS011;69440;52.118;5.408;2023-07-31T03:56:33;19.73;;;5.43;;
80127;SDS011;69440;52.118;5.408;2023-07-31T03:59:01;30.80;;;5.75;;
80127;SDS011;69440;52.118;5.408;2023-07-31T04:01:28;18.63;;;4.80;;
80127;SDS011;69440;52.118;5.408;2023-07-31T04:03:54;19.60;;;5.35;;
80127;SDS011;69440;52.118;5.408;2023-07-31T04:06:21;19.35;;;5.80;;
80127;SDS011;69440;52.118;5.408;2023-07-31T04:08:47;26.25;;;5.03;;
80127;SDS011;69440;52.118;5.408;2023-07-31T04:11:14;17.48;;;5.00;;
80127;SDS011;69440;52.118;5.408;2023-07-31T04:13:40;19.10;;;5.25;;
80127;SDS011;69440;52.118;5.408;2023-07-31T04:16:06;25.20;;;5.25;;
80127;SDS011;69440;52.118;5.408;2023-07-31T04:18:33;20.65;;;5.18;;
80127;SDS011;69440;52.118;5.408;2023-07-31T04:20:59;17.58;;;5.18;;
80127;SDS011;69440;52.118;5.408;2023-07-31T04:23:27;26.15;;;5.28;;
80127;SDS011;69440;52.118;5.408;2023-07-31T04:25:54;26.40;;;5.63;;
80127;SDS011;69440;52.118;5.408;2023-07-31T04:28:20;19.05;;;5.25;;
80127;SDS011;69440;52.118;5.408;2023-07-31T04:30:47;16.75;;;5.03;;
80127;SDS011;69440;52.118;5.408;2023-07-31T04:33:16;22.38;;;5.97;;
80127;SDS011;69440;52.118;5.408;2023-07-31T04:35:48;18.75;;;5.18;;
80127;SDS011;69440;52.118;5.408;2023-07-31T04:38:21;22.52;;;5.22;;
80127;SDS011;69440;52.118;5.408;2023-07-31T04:40:48;19.33;;;5.32;;
80127;SDS011;69440;52.118;5.408;2023-07-31T04:43:15;18.42;;;5.40;;
80127;SDS011;69440;52.118;5.408;2023-07-31T04:45:47;21.33;;;5.32;;
80127;SDS011;69440;52.118;5.408;2023-07-31T04:48:14;22.40;;;6.00;;
80127;SDS011;69440;52.118;5.408;2023-07-31T04:50:41;17.48;;;5.05;;
80127;SDS011;69440;52.118;5.408;2023-07-31T04:53:07;21.30;;;5.55;;
80127;SDS011;69440;52.118;5.408;2023-07-31T04:55:34;23.13;;;5.55;;
80127;SDS011;69440;52.118;5.408;2023-07-31T04:58:00;16.52;;;4.95;;
80127;SDS011;69440;52.118;5.408;2023-07-31T05:00:27;16.02;;;5.32;;
80127;SDS011;69440;52.118;5.408;2023-07-31T05:02:53;16.58;;;4.93;;
80127;SDS011;69440;52.118;5.408;2023-07-31T05:05:20;12.60;;;4.20;;
80127;SDS011;69440;52.118;5.408;2023-07-31T05:07:47;20.95;;;4.95;;
80127;SDS011;69440;52.118;5.408;2023-07-31T05:10:13;15.15;;;4.57;;
80127;SDS011;69440;52.118;5.408;2023-07-31T05:12:40;16.63;;;4.78;;
80127;SDS011;69440;52.118;5.408;2023-07-31T05:15:06;16.60;;;5.45;;
80127;SDS011;69440;52.118;5.408;2023-07-31T05:17:33;19.05;;;5.35;;
80127;SDS011;69440;52.118;5.408;2023-07-31T05:20:00;22.70;;;5.25;;
80127;SDS011;69440;52.118;5.408;2023-07-31T05:22:26;22.80;;;5.57;;
80127;SDS011;69440;52.118;5.408;2023-07-31T05:24:53;14.43;;;4.57;;
80127;SDS011;69440;52.118;5.408;2023-07-31T05:27:20;17.58;;;5.35;;
80127;SDS011;69440;52.118;5.408;2023-07-31T05:29:47;19.55;;;4.78;;
80127;SDS011;69440;52.118;5.408;2023-07-31T05:32:13;12.60;;;4.35;;
80127;SDS011;69440;52.118;5.408;2023-07-31T05:34:40;14.32;;;3.92;;
80127;SDS011;69440;52.118;5.408;2023-07-31T05:37:06;8.40;;;3.08;;
80127;SDS011;69440;52.118;5.408;2023-07-31T05:39:33;7.57;;;2.97;;
80127;SDS011;69440;52.118;5.408;2023-07-31T05:41:59;11.90;;;3.33;;
80127;SDS011;69440;52.118;5.408;2023-07-31T05:44:26;8.43;;;2.90;;
80127;SDS011;69440;52.118;5.408;2023-07-31T05:46:52;8.95;;;3.10;;
80127;SDS011;69440;52.118;5.408;2023-07-31T05:49:19;7.80;;;3.15;;
80127;SDS011;69440;52.118;5.408;2023-07-31T05:51:45;8.55;;;2.80;;
80127;SDS011;69440;52.118;5.408;2023-07-31T05:54:11;9.00;;;3.28;;
80127;SDS011;69440;52.118;5.408;2023-07-31T05:56:38;9.30;;;3.17;;
80127;SDS011;69440;52.118;5.408;2023-07-31T05:59:05;10.82;;;3.47;;
80127;SDS011;69440;52.118;5.408;2023-07-31T06:01:31;10.20;;;3.33;;
80127;SDS011;69440;52.118;5.408;2023-07-31T06:03:58;11.13;;;3.38;;
80127;SDS011;69440;52.118;5.408;2023-07-31T06:06:24;9.77;;;3.72;;
80127;SDS011;69440;52.118;5.408;2023-07-31T06:08:51;9.73;;;4.10;;
80127;SDS011;69440;52.118;5.408;2023-07-31T06:11:20;12.57;;;3.90;;
80127;SDS011;69440;52.118;5.408;2023-07-31T06:13:47;9.43;;;3.72;;
80127;SDS011;69440;52.118;5.408;2023-07-31T06:16:15;13.27;;;3.63;;
80127;SDS011;69440;52.118;5.408;2023-07-31T06:18:41;11.65;;;3.92;;
80127;SDS011;69440;52.118;5.408;2023-07-31T06:21:08;9.82;;;3.72;;
80127;SDS011;69440;52.118;5.408;2023-07-31T06:23:35;10.20;;;3.63;;
80127;SDS011;69440;52.118;5.408;2023-07-31T06:26:02;8.50;;;3.42;;
80127;SDS011;69440;52.118;5.408;2023-07-31T06:28:28;12.45;;;3.80;;
80127;SDS011;69440;52.118;5.408;2023-07-31T06:30:56;10.27;;;3.60;;
80127;SDS011;69440;52.118;5.408;2023-07-31T06:33:25;11.18;;;3.75;;
80127;SDS011;69440;52.118;5.408;2023-07-31T06:35:52;7.68;;;3.10;;
80127;SDS011;69440;52.118;5.408;2023-07-31T06:38:21;10.40;;;3.17;;
80127;SDS011;69440;52.118;5.408;2023-07-31T06:40:49;7.15;;;3.05;;
80127;SDS011;69440;52.118;5.408;2023-07-31T06:43:15;9.40;;;2.53;;
80127;SDS011;69440;52.118;5.408;2023-07-31T06:45:42;9.73;;;3.58;;
80127;SDS011;69440;52.118;5.408;2023-07-31T06:48:08;5.63;;;2.88;;
80127;SDS011;69440;52.118;5.408;2023-07-31T06:50:36;6.38;;;3.03;;
80127;SDS011;69440;52.118;5.408;2023-07-31T06:53:03;6.35;;;2.75;;
80127;SDS011;69440;52.118;5.408;2023-07-31T06:55:29;6.70;;;2.88;;
80127;SDS011;69440;52.118;5.408;2023-07-31T06:57:56;6.15;;;2.70;;
80127;SDS011;69440;52.118;5.408;2023-07-31T07:00:22;5.82;;;2.55;;
80127;SDS011;69440;52.118;5.408;2023-07-31T07:02:50;8.32;;;2.80;;
80127;SDS011;69440;52.118;5.408;2023-07-31T07:05:17;6.70;;;3.10;;
80127;SDS011;69440;52.118;5.408;2023-07-31T07:07:44;8.07;;;2.97;;
80127;SDS011;69440;52.118;5.408;2023-07-31T07:10:10;8.55;;;3.10;;
80127;SDS011;69440;52.118;5.408;2023-07-31T07:12:37;8.75;;;3.00;;
80127;SDS011;69440;52.118;5.408;2023-07-31T07:15:03;7.28;;;3.63;;
80127;SDS011;69440;52.118;5.408;2023-07-31T07:17:30;4.35;;;2.75;;
80127;SDS011;69440;52.118;5.408;2023-07-31T07:20:00;9.05;;;3.17;;
80127;SDS011;69440;52.118;5.408;2023-07-31T07:22:26;6.60;;;2.85;;
80127;SDS011;69440;52.118;5.408;2023-07-31T07:24:53;8.30;;;3.20;;
80127;SDS011;69440;52.118;5.408;2023-07-31T07:27:20;8.25;;;3.35;;
80127;SDS011;69440;52.118;5.408;2023-07-31T07:29:47;8.15;;;3.25;;
80127;SDS011;69440;52.118;5.408;2023-07-31T07:32:16;7.05;;;3.20;;
80127;SDS011;69440;52.118;5.408;2023-07-31T07:34:43;7.38;;;2.88;;
80127;SDS011;69440;52.118;5.408;2023-07-31T07:37:10;5.82;;;3.30;;
80127;SDS011;69440;52.118;5.408;2023-07-31T07:39:37;6.05;;;3.17;;
80127;SDS011;69440;52.118;5.408;2023-07-31T07:42:03;6.65;;;3.13;;
80127;SDS011;69440;52.118;5.408;2023-07-31T07:44:30;8.20;;;3.00;;
80127;SDS011;69440;52.118;5.408;2023-07-31T07:46:56;5.75;;;3.17;;
80127;SDS011;69440;52.118;5.408;2023-07-31T07:49:23;8.27;;;3.10;;
80127;SDS011;69440;52.118;5.408;2023-07-31T07:51:50;10.13;;;3.10;;
80127;SDS011;69440;52.118;5.408;2023-07-31T07:54:16;5.20;;;2.55;;
80127;SDS011;69440;52.118;5.408;2023-07-31T07:56:43;7.43;;;2.78;;
80127;SDS011;69440;52.118;5.408;2023-07-31T07:59:09;5.97;;;2.70;;
80127;SDS011;69440;52.118;5.408;2023-07-31T08:01:36;4.30;;;2.75;;
80127;SDS011;69440;52.118;5.408;2023-07-31T08:04:02;6.85;;;2.92;;
80127;SDS011;69440;52.118;5.408;2023-07-31T08:06:29;4.22;;;2.42;;
80127;SDS011;69440;52.118;5.408;2023-07-31T08:08:56;5.10;;;2.08;;
80127;SDS011;69440;52.118;5.408;2023-07-31T08:11:23;4.07;;;2.20;;
80127;SDS011;69440;52.118;5.408;2023-07-31T08:13:49;4.20;;;1.90;;
80127;SDS011;69440;52.118;5.408;2023-07-31T08:16:16;5.78;;;2.50;;
80127;SDS011;69440;52.118;5.408;2023-07-31T08:18:42;6.32;;;2.30;;
80127;SDS011;69440;52.118;5.408;2023-07-31T08:21:09;4.82;;;1.88;;
80127;SDS011;69440;52.118;5.408;2023-07-31T08:23:36;4.63;;;2.10;;
80127;SDS011;69440;52.118;5.408;2023-07-31T08:26:02;5.93;;;2.10;;
80127;SDS011;69440;52.118;5.408;2023-07-31T08:28:28;4.03;;;1.92;;
80127;SDS011;69440;52.118;5.408;2023-07-31T08:30:55;5.63;;;2.00;;
80127;SDS011;69440;52.118;5.408;2023-07-31T08:33:21;4.35;;;1.83;;
80127;SDS011;69440;52.118;5.408;2023-07-31T08:35:48;3.08;;;1.90;;
80127;SDS011;69440;52.118;5.408;2023-07-31T08:38:15;4.38;;;1.70;;
80127;SDS011;69440;52.118;5.408;2023-07-31T08:40:41;4.45;;;1.52;;
80127;SDS011;69440;52.118;5.408;2023-07-31T08:43:08;3.63;;;1.83;;
80127;SDS011;69440;52.118;5.408;2023-07-31T08:45:35;2.63;;;1.42;;
80127;SDS011;69440;52.118;5.408;2023-07-31T08:48:01;2.75;;;1.50;;
80127;SDS011;69440;52.118;5.408;2023-07-31T08:50:29;3.58;;;1.50;;
80127;SDS011;69440;52.118;5.408;2023-07-31T08:52:55;2.97;;;1.50;;
80127;SDS011;69440;52.118;5.408;2023-07-31T08:55:24;2.00;;;1.30;;
80127;SDS011;69440;52.118;5.408;2023-07-31T08:57:51;3.72;;;1.60;;
80127;SDS011;69440;52.118;5.408;2023-07-31T09:00:19;6.13;;;1.65;;
80127;SDS011;69440;52.118;5.408;2023-07-31T09:05:29;2.83;;;1.70;;
80127;SDS011;69440;52.118;5.408;2023-07-31T09:07:57;3.30;;;1.50;;
80127;SDS011;69440;52.118;5.408;2023-07-31T09:10:24;2.83;;;1.70;;
80127;SDS011;69440;52.118;5.408;2023-07-31T09:12:51;3.17;;;1.73;;
80127;SDS011;69440;52.118;5.408;2023-07-31T09:15:18;3.83;;;1.73;;
80127;SDS011;69440;52.118;5.408;2023-07-31T09:18:02;2.42;;;1.60;;
80127;SDS011;69440;52.118;5.408;2023-07-31T09:20:29;4.53;;;1.92;;
80127;SDS011;69440;52.118;5.408;2023-07-31T09:22:59;3.47;;;1.95;;
80127;SDS011;69440;52.118;5.408;2023-07-31T09:25:32;3.30;;;1.83;;
80127;SDS011;69440;52.118;5.408;2023-07-31T09:28:02;4.35;;;2.10;;
80127;SDS011;69440;52.118;5.408;2023-07-31T09:30:36;3.33;;;2.10;;
80127;SDS011;69440;52.118;5.408;2023-07-31T09:33:11;4.05;;;2.25;;
80127;SDS011;69440;52.118;5.408;2023-07-31T09:35:37;3.25;;;2.20;;
80127;SDS011;69440;52.118;5.408;2023-07-31T09:38:07;3.78;;;2.08;;
80127;SDS011;69440;52.118;5.408;2023-07-31T09:40:37;4.00;;;2.30;;
80127;SDS011;69440;52.118;5.408;2023-07-31T09:43:08;5.20;;;2.50;;
80127;SDS011;69440;52.118;5.408;2023-07-31T09:45:37;3.47;;;1.95;;
80127;SDS011;69440;52.118;5.408;2023-07-31T09:48:11;4.90;;;2.20;;
80127;SDS011;69440;52.118;5.408;2023-07-31T09:50:45;4.43;;;2.38;;
80127;SDS011;69440;52.118;5.408;2023-07-31T09:53:13;4.07;;;2.10;;
80127;SDS011;69440;52.118;5.408;2023-07-31T09:55:41;3.53;;;2.05;;
80127;SDS011;69440;52.118;5.408;2023-07-31T09:58:09;4.15;;;2.05;;
80127;SDS011;69440;52.118;5.408;2023-07-31T10:00:37;5.40;;;2.20;;
80127;SDS011;69440;52.118;5.408;2023-07-31T10:03:04;4.70;;;2.03;;
80127;SDS011;69440;52.118;5.408;2023-07-31T10:08:04;4.82;;;2.25;;
80127;SDS011;69440;52.118;5.408;2023-07-31T10:10:34;3.45;;;2.00;;
80127;SDS011;69440;52.118;5.408;2023-07-31T10:13:02;4.47;;;2.10;;
80127;SDS011;69440;52.118;5.408;2023-07-31T10:15:31;4.72;;;2.20;;
80127;SDS011;69440;52.118;5.408;2023-07-31T10:17:58;6.13;;;3.70;;
80127;SDS011;69440;52.118;5.408;2023-07-31T10:20:25;6.45;;;2.97;;
80127;SDS011;69440;52.118;5.408;2023-07-31T10:22:54;5.47;;;3.28;;
80127;SDS011;69440;52.118;5.408;2023-07-31T10:25:21;6.20;;;3.45;;
80127;SDS011;69440;52.118;5.408;2023-07-31T10:27:48;5.28;;;2.83;;
80127;SDS011;69440;52.118;5.408;2023-07-31T10:30:17;9.20;;;3.88;;
80127;SDS011;69440;52.118;5.408;2023-07-31T10:32:46;5.28;;;3.55;;
80127;SDS011;69440;52.118;5.408;2023-07-31T10:35:16;7.53;;;3.70;;
80127;SDS011;69440;52.118;5.408;2023-07-31T10:37:43;6.88;;;3.72;;
80127;SDS011;69440;52.118;5.408;2023-07-31T10:42:46;7.72;;;3.70;;
80127;SDS011;69440;52.118;5.408;2023-07-31T10:48:03;6.18;;;3.58;;
80127;SDS011;69440;52.118;5.408;2023-07-31T10:50:32;6.93;;;3.63;;
80127;SDS011;69440;52.118;5.408;2023-07-31T10:53:02;8.25;;;3.67;;
80127;SDS011;69440;52.118;5.408;2023-07-31T10:58:05;9.93;;;3.40;;
80127;SDS011;69440;52.118;5.408;2023-07-31T11:00:34;6.47;;;3.15;;
80127;SDS011;69440;52.118;5.408;2023-07-31T11:03:04;4.43;;;3.17;;
80127;SDS011;69440;52.118;5.408;2023-07-31T11:05:46;4.70;;;3.45;;
80127;SDS011;69440;52.118;5.408;2023-07-31T11:08:22;5.68;;;2.88;;
80127;SDS011;69440;52.118;5.408;2023-07-31T11:11:05;5.38;;;2.72;;
80127;SDS011;69440;52.118;5.408;2023-07-31T11:13:33;6.40;;;2.60;;
80127;SDS011;69440;52.118;5.408;2023-07-31T11:16:05;5.70;;;2.40;;
80127;SDS011;69440;52.118;5.408;2023-07-31T11:18:32;5.65;;;2.30;;
80127;SDS011;69440;52.118;5.408;2023-07-31T11:20:59;2.50;;;1.63;;
80127;SDS011;69440;52.118;5.408;2023-07-31T11:23:25;4.22;;;2.30;;
80127;SDS011;69440;52.118;5.408;2023-07-31T11:25:52;4.47;;;2.10;;
80127;SDS011;69440;52.118;5.408;2023-07-31T11:28:19;3.53;;;1.73;;
80127;SDS011;69440;52.118;5.408;2023-07-31T11:30:45;2.75;;;1.95;;
80127;SDS011;69440;52.118;5.408;2023-07-31T11:33:13;5.00;;;1.95;;
80127;SDS011;69440;52.118;5.408;2023-07-31T11:35:46;3.45;;;1.73;;
80127;SDS011;69440;52.118;5.408;2023-07-31T11:38:24;3.65;;;2.05;;
80127;SDS011;69440;52.118;5.408;2023-07-31T11:40:52;6.25;;;3.00;;
80127;SDS011;69440;52.118;5.408;2023-07-31T11:43:19;4.03;;;2.45;;
80127;SDS011;69440;52.118;5.408;2023-07-31T11:46:05;4.70;;;2.40;;
80127;SDS011;69440;52.118;5.408;2023-07-31T11:48:34;5.10;;;2.53;;
80127;SDS011;69440;52.118;5.408;2023-07-31T11:51:06;4.85;;;2.47;;
80127;SDS011;69440;52.118;5.408;2023-07-31T11:53:43;5.82;;;2.65;;
80127;SDS011;69440;52.118;5.408;2023-07-31T11:56:13;4.18;;;2.63;;
80127;SDS011;69440;52.118;5.408;2023-07-31T11:58:42;4.60;;;3.00;;
80127;SDS011;69440;52.118;5.408;2023-07-31T12:01:13;5.07;;;3.20;;
80127;SDS011;69440;52.118;5.408;2023-07-31T12:03:43;6.28;;;2.80;;
80127;SDS011;69440;52.118;5.408;2023-07-31T12:06:11;7.85;;;3.20;;
80127;SDS011;69440;52.118;5.408;2023-07-31T12:08:37;5.85;;;2.95;;
80127;SDS011;69440;52.118;5.408;2023-07-31T12:11:04;5.63;;;3.30;;
80127;SDS011;69440;52.118;5.408;2023-07-31T12:13:32;6.10;;;2.88;;
80127;SDS011;69440;52.118;5.408;2023-07-31T12:16:00;5.50;;;3.65;;
80127;SDS011;69440;52.118;5.408;2023-07-31T12:18:36;5.13;;;3.13;;
80127;SDS011;69440;52.118;5.408;2023-07-31T12:21:04;6.75;;;2.88;;
80127;SDS011;69440;52.118;5.408;2023-07-31T12:23:32;6.28;;;3.67;;
80127;SDS011;69440;52.118;5.408;2023-07-31T12:26:04;4.15;;;2.50;;
80127;SDS011;69440;52.118;5.408;2023-07-31T12:28:35;2.95;;;2.58;;
80127;SDS011;69440;52.118;5.408;2023-07-31T12:31:04;4.72;;;2.83;;
80127;SDS011;69440;52.118;5.408;2023-07-31T12:33:32;4.30;;;2.65;;
80127;SDS011;69440;52.118;5.408;2023-07-31T12:36:03;4.40;;;2.70;;
80127;SDS011;69440;52.118;5.408;2023-07-31T12:38:30;3.75;;;2.55;;
80127;SDS011;69440;52.118;5.408;2023-07-31T12:40:57;3.75;;;2.25;;
80127;SDS011;69440;52.118;5.408;2023-07-31T12:43:23;6.47;;;2.47;;
80127;SDS011;69440;52.118;5.408;2023-07-31T12:45:50;3.70;;;2.75;;
80127;SDS011;69440;52.118;5.408;2023-07-31T12:48:17;5.15;;;3.00;;
80127;SDS011;69440;52.118;5.408;2023-07-31T12:50:43;4.55;;;3.15;;
80127;SDS011;69440;52.118;5.408;2023-07-31T12:53:10;3.53;;;2.92;;
80127;SDS011;69440;52.118;5.408;2023-07-31T12:55:36;5.20;;;3.10;;
80127;SDS011;69440;52.118;5.408;2023-07-31T12:58:03;4.80;;;3.35;;
80127;SDS011;69440;52.118;5.408;2023-07-31T13:00:30;5.95;;;3.78;;
80127;SDS011;69440;52.118;5.408;2023-07-31T13:02:56;5.45;;;3.33;;
80127;SDS011;69440;52.118;5.408;2023-07-31T13:05:23;6.28;;;3.58;;
80127;SDS011;69440;52.118;5.408;2023-07-31T13:07:49;4.65;;;3.25;;
80127;SDS011;69440;52.118;5.408;2023-07-31T13:10:18;5.13;;;3.63;;
80127;SDS011;69440;52.118;5.408;2023-07-31T13:12:45;4.45;;;3.28;;
80127;SDS011;69440;52.118;5.408;2023-07-31T13:15:12;5.90;;;4.00;;
80127;SDS011;69440;52.118;5.408;2023-07-31T13:17:38;5.97;;;3.47;;
80127;SDS011;69440;52.118;5.408;2023-07-31T13:20:05;6.07;;;3.22;;
80127;SDS011;69440;52.118;5.408;2023-07-31T13:22:32;5.88;;;3.65;;
80127;SDS011;69440;52.118;5.408;2023-07-31T13:24:59;4.88;;;3.50;;
80127;SDS011;69440;52.118;5.408;2023-07-31T13:27:26;5.78;;;3.50;;
80127;SDS011;69440;52.118;5.408;2023-07-31T13:29:52;5.07;;;3.45;;
80127;SDS011;69440;52.118;5.408;2023-07-31T13:32:19;6.05;;;3.80;;
80127;SDS011;69440;52.118;5.408;2023-07-31T13:34:47;4.93;;;3.03;;
80127;SDS011;69440;52.118;5.408;2023-07-31T13:37:14;6.28;;;3.55;;
80127;SDS011;69440;52.118;5.408;2023-07-31T13:39:41;4.53;;;2.78;;
80127;SDS011;69440;52.118;5.408;2023-07-31T13:42:09;3.58;;;2.38;;
80127;SDS011;69440;52.118;5.408;2023-07-31T13:44:38;3.08;;;2.28;;
80127;SDS011;69440;52.118;5.408;2023-07-31T13:47:06;3.58;;;1.80;;
80127;SDS011;69440;52.118;5.408;2023-07-31T13:49:33;2.75;;;1.70;;
80127;SDS011;69440;52.118;5.408;2023-07-31T13:52:00;3.17;;;1.73;;
80127;SDS011;69440;52.118;5.408;2023-07-31T13:54:27;2.67;;;1.80;;
80127;SDS011;69440;52.118;5.408;2023-07-31T13:56:56;4.47;;;2.25;;
80127;SDS011;69440;52.118;5.408;2023-07-31T13:59:23;3.80;;;2.25;;
80127;SDS011;69440;52.118;5.408;2023-07-31T14:01:49;3.53;;;2.05;;
80127;SDS011;69440;52.118;5.408;2023-07-31T14:04:16;4.35;;;2.15;;
80127;SDS011;69440;52.118;5.408;2023-07-31T14:06:43;2.40;;;1.90;;
80127;SDS011;69440;52.118;5.408;2023-07-31T14:09:10;4.95;;;1.95;;
80127;SDS011;69440;52.118;5.408;2023-07-31T14:11:37;2.55;;;1.75;;
80127;SDS011;69440;52.118;5.408;2023-07-31T14:14:08;3.53;;;1.95;;
80127;SDS011;69440;52.118;5.408;2023-07-31T14:16:35;3.88;;;2.35;;
80127;SDS011;69440;52.118;5.408;2023-07-31T14:19:02;5.30;;;3.63;;
80127;SDS011;69440;52.118;5.408;2023-07-31T14:21:29;5.55;;;3.83;;
80127;SDS011;69440;52.118;5.408;2023-07-31T14:23:55;4.97;;;4.10;;
80127;SDS011;69440;52.118;5.408;2023-07-31T14:26:22;7.97;;;5.00;;
80127;SDS011;69440;52.118;5.408;2023-07-31T14:28:48;10.65;;;5.72;;
80127;SDS011;69440;52.118;5.408;2023-07-31T14:31:15;9.40;;;5.97;;
80127;SDS011;69440;52.118;5.408;2023-07-31T14:33:41;9.57;;;5.55;;
80127;SDS011;69440;52.118;5.408;2023-07-31T14:36:08;9.73;;;5.93;;
80127;SDS011;69440;52.118;5.408;2023-07-31T14:38:34;7.18;;;5.47;;
80127;SDS011;69440;52.118;5.408;2023-07-31T14:41:01;8.32;;;5.85;;
80127;SDS011;69440;52.118;5.408;2023-07-31T14:43:28;9.40;;;5.55;;
80127;SDS011;69440;52.118;5.408;2023-07-31T14:45:54;7.80;;;5.30;;
80127;SDS011;69440;52.118;5.408;2023-07-31T14:48:24;7.50;;;5.03;;
80127;SDS011;69440;52.118;5.408;2023-07-31T14:50:50;10.55;;;5.65;;
80127;SDS011;69440;52.118;5.408;2023-07-31T14:53:17;7.68;;;4.55;;
80127;SDS011;69440;52.118;5.408;2023-07-31T14:55:43;8.18;;;4.93;;
80127;SDS011;69440;52.118;5.408;2023-07-31T14:58:10;10.40;;;5.38;;
80127;SDS011;69440;52.118;5.408;2023-07-31T15:00:38;6.40;;;4.50;;
80127;SDS011;69440;52.118;5.408;2023-07-31T15:03:05;6.80;;;4.53;;
80127;SDS011;69440;52.118;5.408;2023-07-31T15:05:31;5.28;;;3.70;;
80127;SDS011;69440;52.118;5.408;2023-07-31T15:07:58;5.22;;;3.80;;
80127;SDS011;69440;52.118;5.408;2023-07-31T15:10:24;7.45;;;4.07;;